sensor_id;sensor_type;location;lat;lon;timestamp;P1;durP1;ratioP1;P2;durP2;ratioP2
3881;SDS011;1956;53.482;10.238;2023-03-03T00:02:49;39.17;;;17.80;;
3881;SDS011;1956;53.482;10.238;2023-03-03T00:07:49;35.83;;;17.50;;
3881;SDS011;1956;53.482;10.238;2023-03-03T00:12:50;37.13;;;18.57;;
3881;SDS011;1956;53.482;10.238;2023-03-03T00:17:51;26.90;;;15.93;;
3881;SDS011;1956;53.482;10.238;2023-03-03T00:22:51;31.43;;;18.30;;
3881;SDS011;1956;53.482;10.238;2023-03-03T00:27:52;42.43;;;19.80;;
3881;SDS011;1956;53.482;10.238;2023-03-03T00:32:52;39.70;;;18.30;;
3881;SDS011;1956;53.482;10.238;2023-03-03T00:37:58;45.60;;;19.57;;
3881;SDS011;1956;53.482;10.238;2023-03-03T00:43:00;47.40;;;22.00;;
3881;SDS011;1956;53.482;10.238;2023-03-03T00:48:08;52.87;;;20.80;;
3881;SDS011;1956;53.482;10.238;2023-03-03T00:53:17;50.30;;;21.37;;
3881;SDS011;1956;53.482;10.238;2023-03-03T00:58:19;55.20;;;23.03;;
3881;SDS011;1956;53.482;10.238;2023-03-03T01:03:21;59.70;;;25.33;;
3881;SDS011;1956;53.482;10.238;2023-03-03T01:08:23;65.73;;;24.03;;
3881;SDS011;1956;53.482;10.238;2023-03-03T01:13:28;61.27;;;24.47;;
3881;SDS011;1956;53.482;10.238;2023-03-03T01:18:30;57.80;;;25.20;;
3881;SDS011;1956;53.482;10.238;2023-03-03T01:23:31;60.17;;;23.63;;
3881;SDS011;1956;53.482;10.238;2023-03-03T01:28:32;70.07;;;25.97;;
3881;SDS011;1956;53.482;10.238;2023-03-03T01:33:33;61.23;;;26.90;;
3881;SDS011;1956;53.482;10.238;2023-03-03T01:38:34;72.30;;;26.73;;
3881;SDS011;1956;53.482;10.238;2023-03-03T01:43:41;79.73;;;27.20;;
3881;SDS011;1956;53.482;10.238;2023-03-03T01:48:44;78.23;;;28.30;;
3881;SDS011;1956;53.482;10.238;2023-03-03T01:53:45;110.97;;;28.53;;
3881;SDS011;1956;53.482;10.238;2023-03-03T01:58:49;83.63;;;30.10;;
3881;SDS011;1956;53.482;10.238;2023-03-03T02:03:51;157.83;;;34.23;;
3881;SDS011;1956;53.482;10.238;2023-03-03T02:08:59;192.20;;;33.43;;
3881;SDS011;1956;53.482;10.238;2023-03-03T02:14:27;177.67;;;34.00;;
3881;SDS011;1956;53.482;10.238;2023-03-03T02:25:03;167.50;;;36.23;;
3881;SDS011;1956;53.482;10.238;2023-03-03T02:30:13;138.10;;;36.37;;
3881;SDS011;1956;53.482;10.238;2023-03-03T02:35:29;253.23;;;42.87;;
3881;SDS011;1956;53.482;10.238;2023-03-03T02:40:33;308.70;;;40.40;;
3881;SDS011;1956;53.482;10.238;2023-03-03T02:45:43;389.17;;;44.40;;
3881;SDS011;1956;53.482;10.238;2023-03-03T02:50:44;308.13;;;43.33;;
3881;SDS011;1956;53.482;10.238;2023-03-03T02:55:44;269.83;;;39.77;;
3881;SDS011;1956;53.482;10.238;2023-03-03T03:00:45;309.43;;;38.83;;
3881;SDS011;1956;53.482;10.238;2023-03-03T03:05:46;307.40;;;36.77;;
3881;SDS011;1956;53.482;10.238;2023-03-03T03:10:47;227.10;;;32.43;;
3881;SDS011;1956;53.482;10.238;2023-03-03T03:15:47;84.27;;;27.40;;
3881;SDS011;1956;53.482;10.238;2023-03-03T03:20:48;291.57;;;42.17;;
3881;SDS011;1956;53.482;10.238;2023-03-03T03:25:48;219.80;;;33.33;;
3881;SDS011;1956;53.482;10.238;2023-03-03T03:30:49;160.03;;;30.60;;
3881;SDS011;1956;53.482;10.238;2023-03-03T03:35:50;184.00;;;30.77;;
3881;SDS011;1956;53.482;10.238;2023-03-03T03:40:50;101.63;;;28.67;;
3881;SDS011;1956;53.482;10.238;2023-03-03T03:45:51;252.13;;;35.37;;
3881;SDS011;1956;53.482;10.238;2023-03-03T03:50:51;275.47;;;35.23;;
3881;SDS011;1956;53.482;10.238;2023-03-03T03:55:52;229.13;;;34.43;;
3881;SDS011;1956;53.482;10.238;2023-03-03T04:00:52;157.30;;;30.40;;
3881;SDS011;1956;53.482;10.238;2023-03-03T04:05:53;209.93;;;32.70;;
3881;SDS011;1956;53.482;10.238;2023-03-03T04:10:54;109.23;;;26.20;;
3881;SDS011;1956;53.482;10.238;2023-03-03T04:15:54;121.40;;;28.80;;
3881;SDS011;1956;53.482;10.238;2023-03-03T04:20:54;211.37;;;29.07;;
3881;SDS011;1956;53.482;10.238;2023-03-03T04:25:55;370.03;;;38.67;;
3881;SDS011;1956;53.482;10.238;2023-03-03T04:30:55;93.90;;;26.20;;
3881;SDS011;1956;53.482;10.238;2023-03-03T04:35:56;404.53;;;39.17;;
3881;SDS011;1956;53.482;10.238;2023-03-03T04:40:56;200.77;;;31.00;;
3881;SDS011;1956;53.482;10.238;2023-03-03T04:45:56;305.93;;;39.10;;
3881;SDS011;1956;53.482;10.238;2023-03-03T04:50:57;281.20;;;36.23;;
3881;SDS011;1956;53.482;10.238;2023-03-03T04:55:57;149.70;;;33.33;;
3881;SDS011;1956;53.482;10.238;2023-03-03T05:00:57;172.80;;;32.43;;
3881;SDS011;1956;53.482;10.238;2023-03-03T05:05:58;213.53;;;33.93;;
3881;SDS011;1956;53.482;10.238;2023-03-03T05:10:58;282.20;;;37.63;;
3881;SDS011;1956;53.482;10.238;2023-03-03T05:16:00;136.57;;;31.40;;
3881;SDS011;1956;53.482;10.238;2023-03-03T05:21:00;112.60;;;33.07;;
3881;SDS011;1956;53.482;10.238;2023-03-03T05:26:01;83.23;;;30.80;;
3881;SDS011;1956;53.482;10.238;2023-03-03T05:31:01;80.23;;;29.77;;
3881;SDS011;1956;53.482;10.238;2023-03-03T05:36:02;136.93;;;33.23;;
3881;SDS011;1956;53.482;10.238;2023-03-03T05:41:02;356.00;;;39.90;;
3881;SDS011;1956;53.482;10.238;2023-03-03T05:46:03;153.33;;;32.40;;
3881;SDS011;1956;53.482;10.238;2023-03-03T05:51:03;168.23;;;33.80;;
3881;SDS011;1956;53.482;10.238;2023-03-03T05:56:04;264.57;;;40.00;;
3881;SDS011;1956;53.482;10.238;2023-03-03T06:01:05;202.13;;;37.57;;
3881;SDS011;1956;53.482;10.238;2023-03-03T06:06:05;284.37;;;38.17;;
3881;SDS011;1956;53.482;10.238;2023-03-03T06:11:08;139.67;;;30.67;;
3881;SDS011;1956;53.482;10.238;2023-03-03T06:16:08;193.27;;;35.20;;
3881;SDS011;1956;53.482;10.238;2023-03-03T06:21:08;104.57;;;31.60;;
3881;SDS011;1956;53.482;10.238;2023-03-03T06:26:09;132.37;;;31.30;;
3881;SDS011;1956;53.482;10.238;2023-03-03T06:31:09;114.40;;;31.00;;
3881;SDS011;1956;53.482;10.238;2023-03-03T06:36:11;91.37;;;31.20;;
3881;SDS011;1956;53.482;10.238;2023-03-03T06:41:11;119.20;;;30.83;;
3881;SDS011;1956;53.482;10.238;2023-03-03T06:46:11;85.07;;;29.10;;
3881;SDS011;1956;53.482;10.238;2023-03-03T06:51:18;115.33;;;34.40;;
3881;SDS011;1956;53.482;10.238;2023-03-03T06:56:27;142.27;;;33.77;;
3881;SDS011;1956;53.482;10.238;2023-03-03T07:01:29;134.13;;;32.53;;
3881;SDS011;1956;53.482;10.238;2023-03-03T07:06:34;206.70;;;40.10;;
3881;SDS011;1956;53.482;10.238;2023-03-03T07:11:35;108.30;;;30.77;;
3881;SDS011;1956;53.482;10.238;2023-03-03T07:16:38;101.93;;;31.17;;
3881;SDS011;1956;53.482;10.238;2023-03-03T07:21:38;134.43;;;31.80;;
3881;SDS011;1956;53.482;10.238;2023-03-03T07:26:40;114.23;;;33.43;;
3881;SDS011;1956;53.482;10.238;2023-03-03T07:31:41;166.30;;;34.57;;
3881;SDS011;1956;53.482;10.238;2023-03-03T07:36:41;111.67;;;33.47;;
3881;SDS011;1956;53.482;10.238;2023-03-03T07:41:42;168.13;;;35.00;;
3881;SDS011;1956;53.482;10.238;2023-03-03T07:46:43;123.87;;;37.27;;
3881;SDS011;1956;53.482;10.238;2023-03-03T07:51:47;116.17;;;36.63;;
3881;SDS011;1956;53.482;10.238;2023-03-03T07:56:51;109.93;;;34.67;;
3881;SDS011;1956;53.482;10.238;2023-03-03T08:01:53;96.90;;;33.73;;
3881;SDS011;1956;53.482;10.238;2023-03-03T08:06:58;87.40;;;32.07;;
3881;SDS011;1956;53.482;10.238;2023-03-03T08:13:22;85.53;;;29.03;;
3881;SDS011;1956;53.482;10.238;2023-03-03T08:17:33;94.67;;;34.60;;
3881;SDS011;1956;53.482;10.238;2023-03-03T08:22:35;87.40;;;32.60;;
3881;SDS011;1956;53.482;10.238;2023-03-03T08:27:36;93.67;;;34.10;;
3881;SDS011;1956;53.482;10.238;2023-03-03T08:32:36;102.27;;;37.97;;
3881;SDS011;1956;53.482;10.238;2023-03-03T08:37:37;90.43;;;35.07;;
3881;SDS011;1956;53.482;10.238;2023-03-03T08:42:37;99.70;;;35.30;;
3881;SDS011;1956;53.482;10.238;2023-03-03T08:47:37;101.77;;;37.37;;
3881;SDS011;1956;53.482;10.238;2023-03-03T08:52:38;98.40;;;35.30;;
3881;SDS011;1956;53.482;10.238;2023-03-03T08:57:38;90.77;;;32.83;;
3881;SDS011;1956;53.482;10.238;2023-03-03T09:02:39;109.87;;;32.70;;
3881;SDS011;1956;53.482;10.238;2023-03-03T09:07:39;107.57;;;32.53;;
3881;SDS011;1956;53.482;10.238;2023-03-03T09:12:42;90.70;;;32.43;;
3881;SDS011;1956;53.482;10.238;2023-03-03T09:17:47;80.97;;;30.27;;
3881;SDS011;1956;53.482;10.238;2023-03-03T09:22:48;128.47;;;29.90;;
3881;SDS011;1956;53.482;10.238;2023-03-03T09:27:51;84.80;;;30.20;;
3881;SDS011;1956;53.482;10.238;2023-03-03T09:32:52;74.10;;;28.93;;
3881;SDS011;1956;53.482;10.238;2023-03-03T09:37:55;83.63;;;28.43;;
3881;SDS011;1956;53.482;10.238;2023-03-03T09:43:03;102.20;;;28.53;;
3881;SDS011;1956;53.482;10.238;2023-03-03T09:55:01;85.03;;;29.50;;
3881;SDS011;1956;53.482;10.238;2023-03-03T10:05:54;87.03;;;33.00;;
3881;SDS011;1956;53.482;10.238;2023-03-03T10:11:01;74.33;;;29.83;;
3881;SDS011;1956;53.482;10.238;2023-03-03T10:16:35;64.63;;;30.57;;
3881;SDS011;1956;53.482;10.238;2023-03-03T10:21:47;73.13;;;32.07;;
3881;SDS011;1956;53.482;10.238;2023-03-03T10:32:34;82.03;;;32.73;;
3881;SDS011;1956;53.482;10.238;2023-03-03T10:37:52;76.27;;;31.87;;
3881;SDS011;1956;53.482;10.238;2023-03-03T10:49:18;75.77;;;31.70;;
3881;SDS011;1956;53.482;10.238;2023-03-03T10:54:37;87.27;;;34.37;;
3881;SDS011;1956;53.482;10.238;2023-03-03T11:00:20;90.20;;;34.23;;
3881;SDS011;1956;53.482;10.238;2023-03-03T11:05:58;98.30;;;35.60;;
3881;SDS011;1956;53.482;10.238;2023-03-03T11:11:52;99.30;;;38.33;;
3881;SDS011;1956;53.482;10.238;2023-03-03T11:21:54;61.63;;;27.30;;
3881;SDS011;1956;53.482;10.238;2023-03-03T11:39:03;59.70;;;28.70;;
3881;SDS011;1956;53.482;10.238;2023-03-03T11:44:21;50.87;;;24.27;;
3881;SDS011;1956;53.482;10.238;2023-03-03T11:49:27;51.30;;;26.73;;
3881;SDS011;1956;53.482;10.238;2023-03-03T12:00:15;33.20;;;18.17;;
3881;SDS011;1956;53.482;10.238;2023-03-03T12:05:44;41.53;;;22.17;;
3881;SDS011;1956;53.482;10.238;2023-03-03T12:11:41;36.03;;;19.53;;
3881;SDS011;1956;53.482;10.238;2023-03-03T12:16:38;48.00;;;18.77;;
3881;SDS011;1956;53.482;10.238;2023-03-03T12:22:15;24.37;;;15.67;;
3881;SDS011;1956;53.482;10.238;2023-03-03T12:27:31;29.23;;;16.90;;
3881;SDS011;1956;53.482;10.238;2023-03-03T12:32:57;20.60;;;13.60;;
3881;SDS011;1956;53.482;10.238;2023-03-03T12:44:07;14.80;;;9.63;;
3881;SDS011;1956;53.482;10.238;2023-03-03T12:49:16;17.57;;;10.10;;
3881;SDS011;1956;53.482;10.238;2023-03-03T12:54:36;13.53;;;9.37;;
3881;SDS011;1956;53.482;10.238;2023-03-03T13:01:36;17.10;;;9.03;;
3881;SDS011;1956;53.482;10.238;2023-03-03T13:11:16;7.37;;;4.90;;
3881;SDS011;1956;53.482;10.238;2023-03-03T13:16:35;8.33;;;5.03;;
3881;SDS011;1956;53.482;10.238;2023-03-03T13:21:39;17.60;;;6.43;;
3881;SDS011;1956;53.482;10.238;2023-03-03T13:26:44;15.57;;;6.47;;
3881;SDS011;1956;53.482;10.238;2023-03-03T13:31:59;13.60;;;5.50;;
3881;SDS011;1956;53.482;10.238;2023-03-03T13:37:11;9.33;;;4.93;;
3881;SDS011;1956;53.482;10.238;2023-03-03T13:42:22;12.13;;;5.73;;
3881;SDS011;1956;53.482;10.238;2023-03-03T13:48:22;7.03;;;3.70;;
3881;SDS011;1956;53.482;10.238;2023-03-03T13:53:26;6.37;;;3.07;;
3881;SDS011;1956;53.482;10.238;2023-03-03T13:58:44;5.33;;;2.97;;
3881;SDS011;1956;53.482;10.238;2023-03-03T14:04:00;9.73;;;2.87;;
3881;SDS011;1956;53.482;10.238;2023-03-03T14:15:28;13.43;;;3.40;;
3881;SDS011;1956;53.482;10.238;2023-03-03T14:20:31;6.10;;;3.50;;
3881;SDS011;1956;53.482;10.238;2023-03-03T14:25:55;5.07;;;3.00;;
3881;SDS011;1956;53.482;10.238;2023-03-03T14:36:38;7.60;;;3.43;;
3881;SDS011;1956;53.482;10.238;2023-03-03T14:41:40;5.87;;;2.17;;
3881;SDS011;1956;53.482;10.238;2023-03-03T14:46:42;6.30;;;2.23;;
3881;SDS011;1956;53.482;10.238;2023-03-03T14:51:47;10.87;;;3.27;;
3881;SDS011;1956;53.482;10.238;2023-03-03T14:57:36;5.40;;;2.50;;
3881;SDS011;1956;53.482;10.238;2023-03-03T15:02:40;4.60;;;1.90;;
3881;SDS011;1956;53.482;10.238;2023-03-03T15:07:41;5.80;;;2.67;;
3881;SDS011;1956;53.482;10.238;2023-03-03T15:12:41;10.03;;;5.97;;
3881;SDS011;1956;53.482;10.238;2023-03-03T15:17:43;4.07;;;2.60;;
3881;SDS011;1956;53.482;10.238;2023-03-03T15:28:31;4.60;;;2.20;;
3881;SDS011;1956;53.482;10.238;2023-03-03T15:33:42;3.40;;;2.43;;
3881;SDS011;1956;53.482;10.238;2023-03-03T15:50:49;8.00;;;3.33;;
3881;SDS011;1956;53.482;10.238;2023-03-03T15:56:04;12.13;;;6.00;;
3881;SDS011;1956;53.482;10.238;2023-03-03T16:01:32;10.83;;;4.30;;
3881;SDS011;1956;53.482;10.238;2023-03-03T16:11:48;9.93;;;2.03;;
3881;SDS011;1956;53.482;10.238;2023-03-03T16:22:45;7.17;;;5.50;;
3881;SDS011;1956;53.482;10.238;2023-03-03T16:27:55;14.00;;;6.73;;
3881;SDS011;1956;53.482;10.238;2023-03-03T16:33:23;16.67;;;6.63;;
3881;SDS011;1956;53.482;10.238;2023-03-03T16:38:31;9.67;;;5.37;;
3881;SDS011;1956;53.482;10.238;2023-03-03T16:43:45;13.93;;;5.60;;
3881;SDS011;1956;53.482;10.238;2023-03-03T17:00:16;15.00;;;6.77;;
3881;SDS011;1956;53.482;10.238;2023-03-03T17:30:27;10.87;;;2.73;;
3881;SDS011;1956;53.482;10.238;2023-03-03T17:34:26;11.10;;;3.40;;
3881;SDS011;1956;53.482;10.238;2023-03-03T17:45:17;14.97;;;3.77;;
3881;SDS011;1956;53.482;10.238;2023-03-03T17:50:33;16.10;;;3.23;;
3881;SDS011;1956;53.482;10.238;2023-03-03T18:19:35;24.43;;;4.50;;
3881;SDS011;1956;53.482;10.238;2023-03-03T18:24:32;13.80;;;3.57;;
3881;SDS011;1956;53.482;10.238;2023-03-03T18:29:35;22.43;;;3.57;;
3881;SDS011;1956;53.482;10.238;2023-03-03T18:34:37;17.93;;;3.90;;
3881;SDS011;1956;53.482;10.238;2023-03-03T18:39:46;14.80;;;3.70;;
3881;SDS011;1956;53.482;10.238;2023-03-03T18:44:49;21.73;;;3.83;;
3881;SDS011;1956;53.482;10.238;2023-03-03T18:50:00;15.07;;;3.13;;
3881;SDS011;1956;53.482;10.238;2023-03-03T19:00:28;18.93;;;3.97;;
3881;SDS011;1956;53.482;10.238;2023-03-03T19:05:36;19.50;;;3.63;;
3881;SDS011;1956;53.482;10.238;2023-03-03T19:10:50;20.60;;;3.70;;
3881;SDS011;1956;53.482;10.238;2023-03-03T19:15:56;15.07;;;3.93;;
3881;SDS011;1956;53.482;10.238;2023-03-03T19:21:02;21.83;;;5.07;;
3881;SDS011;1956;53.482;10.238;2023-03-03T19:32:10;28.17;;;3.63;;
3881;SDS011;1956;53.482;10.238;2023-03-03T19:37:39;23.17;;;5.23;;
3881;SDS011;1956;53.482;10.238;2023-03-03T19:42:57;26.67;;;4.30;;
3881;SDS011;1956;53.482;10.238;2023-03-03T20:00:14;24.50;;;5.10;;
3881;SDS011;1956;53.482;10.238;2023-03-03T20:17:23;26.03;;;7.33;;
3881;SDS011;1956;53.482;10.238;2023-03-03T20:34:19;15.53;;;3.70;;
3881;SDS011;1956;53.482;10.238;2023-03-03T20:39:37;18.50;;;4.00;;
3881;SDS011;1956;53.482;10.238;2023-03-03T20:50:52;25.03;;;4.20;;
3881;SDS011;1956;53.482;10.238;2023-03-03T20:56:09;19.33;;;4.40;;
3881;SDS011;1956;53.482;10.238;2023-03-03T21:01:15;27.53;;;3.73;;
3881;SDS011;1956;53.482;10.238;2023-03-03T21:06:20;21.30;;;4.77;;
3881;SDS011;1956;53.482;10.238;2023-03-03T21:11:23;44.67;;;5.77;;
3881;SDS011;1956;53.482;10.238;2023-03-03T21:16:40;39.67;;;6.30;;
3881;SDS011;1956;53.482;10.238;2023-03-03T21:21:41;26.17;;;5.80;;
3881;SDS011;1956;53.482;10.238;2023-03-03T21:26:48;32.70;;;5.63;;
3881;SDS011;1956;53.482;10.238;2023-03-03T21:31:56;22.53;;;5.60;;
3881;SDS011;1956;53.482;10.238;2023-03-03T21:37:02;29.43;;;3.40;;
3881;SDS011;1956;53.482;10.238;2023-03-03T21:42:15;15.73;;;4.73;;
3881;SDS011;1956;53.482;10.238;2023-03-03T21:47:18;11.20;;;3.53;;
3881;SDS011;1956;53.482;10.238;2023-03-03T21:52:20;25.47;;;4.10;;
3881;SDS011;1956;53.482;10.238;2023-03-03T21:57:21;18.83;;;4.03;;
3881;SDS011;1956;53.482;10.238;2023-03-03T22:02:21;14.93;;;3.13;;
3881;SDS011;1956;53.482;10.238;2023-03-03T22:07:22;25.50;;;4.13;;
3881;SDS011;1956;53.482;10.238;2023-03-03T22:12:22;25.97;;;3.83;;
3881;SDS011;1956;53.482;10.238;2023-03-03T22:17:22;20.67;;;4.33;;
3881;SDS011;1956;53.482;10.238;2023-03-03T22:22:24;23.00;;;3.20;;
3881;SDS011;1956;53.482;10.238;2023-03-03T22:27:24;31.70;;;3.97;;
3881;SDS011;1956;53.482;10.238;2023-03-03T22:32:25;17.03;;;3.23;;
3881;SDS011;1956;53.482;10.238;2023-03-03T22:37:25;26.40;;;4.30;;
3881;SDS011;1956;53.482;10.238;2023-03-03T22:42:26;28.30;;;4.50;;
3881;SDS011;1956;53.482;10.238;2023-03-03T22:47:26;22.73;;;4.10;;
3881;SDS011;1956;53.482;10.238;2023-03-03T22:52:26;17.10;;;4.40;;
3881;SDS011;1956;53.482;10.238;2023-03-03T22:57:27;11.13;;;3.30;;
3881;SDS011;1956;53.482;10.238;2023-03-03T23:02:28;17.03;;;3.00;;
3881;SDS011;1956;53.482;10.238;2023-03-03T23:07:28;18.53;;;3.50;;
3881;SDS011;1956;53.482;10.238;2023-03-03T23:12:29;17.53;;;3.30;;
3881;SDS011;1956;53.482;10.238;2023-03-03T23:17:29;20.17;;;4.40;;
3881;SDS011;1956;53.482;10.238;2023-03-03T23:22:30;14.83;;;3.40;;
3881;SDS011;1956;53.482;10.238;2023-03-03T23:27:30;26.30;;;4.60;;
3881;SDS011;1956;53.482;10.238;2023-03-03T23:32:30;18.33;;;3.90;;
3881;SDS011;1956;53.482;10.238;2023-03-03T23:37:31;15.50;;;3.70;;
3881;SDS011;1956;53.482;10.238;2023-03-03T23:42:31;15.93;;;3.80;;
3881;SDS011;1956;53.482;10.238;2023-03-03T23:47:32;14.80;;;3.70;;
3881;SDS011;1956;53.482;10.238;2023-03-03T23:52:32;14.13;;;3.53;;
3881;SDS011;1956;53.482;10.238;2023-03-03T23:57:32;15.13;;;3.80;;
